Time;durP1;ratioP1;P1;durP2;ratioP2;P2;SDS_P1;SDS_P2;PMS_P1;PMS_P2;Temp;Humidity;BMP_temperature;BMP_pressure;BME280_temperature;BME280_humidity;BME280_pressure;Samples;Min_cycle;Max_cycle;Signal;HPM_P1;HPM_P2
2022/09/06 00:02:30;;;;;;;21.25;19.05;;;;;;;;;;5070057;28;20421;-72
2022/09/06 00:04:56;;;;;;;22.33;19.50;;;;;;;;;;5052535;28;20021;-72
2022/09/06 00:07:22;;;;;;;22.40;20.00;;;;;;;;;;5069365;28;20553;-72
2022/09/06 00:09:48;;;;;;;23.90;20.67;;;;;;;;;;5070350;28;20432;-73
2022/09/06 00:12:14;;;;;;;23.92;21.42;;;;;;;;;;5072679;28;20108;-72
2022/09/06 00:14:40;;;;;;;23.00;20.25;;;;;;;;;;5073399;28;20025;-71
2022/09/06 00:17:06;;;;;;;22.38;19.42;;;;;;;;;;5073035;28;20029;-70
2022/09/06 00:19:32;;;;;;;23.75;19.85;;;;;;;;;;5055531;28;20482;-71
2022/09/06 00:21:58;;;;;;;22.92;19.58;;;;;;;;;;5074036;28;20028;-71
2022/09/06 00:24:24;;;;;;;23.10;20.73;;;;;;;;;;5073310;28;20493;-73
2022/09/06 00:26:50;;;;;;;23.15;19.25;;;;;;;;;;5073623;28;20099;-72
2022/09/06 00:29:16;;;;;;;22.35;20.05;;;;;;;;;;5072703;28;20024;-72
2022/09/06 00:31:42;;;;;;;20.83;18.77;;;;;;;;;;5073507;28;20028;-73
2022/09/06 00:34:08;;;;;;;21.00;18.80;;;;;;;;;;5073186;28;20545;-73
2022/09/06 00:36:34;;;;;;;21.38;19.15;;;;;;;;;;5073371;28;20073;-71
2022/09/06 00:39:00;;;;;;;21.80;19.48;;;;;;;;;;5072529;28;20032;-70
2022/09/06 00:41:26;;;;;;;20.00;18.00;;;;;;;;;;5073394;28;20020;-71
2022/09/06 00:43:52;;;;;;;20.58;17.13;;;;;;;;;;5094409;22;20047;-74
2022/09/06 00:46:20;;;;;;;18.52;16.52;;;;;;;;;;5097701;28;20017;-73
2022/09/06 00:48:47;;;;;;;17.77;15.93;;;;;;;;;;5085130;28;20054;-73
2022/09/06 00:51:14;;;;;;;19.88;16.73;;;;;;;;;;5084492;28;20099;-72
2022/09/06 00:53:40;;;;;;;19.65;17.15;;;;;;;;;;5085377;28;20028;-71
2022/09/06 00:56:06;;;;;;;17.80;15.90;;;;;;;;;;5083472;28;20024;-73
2022/09/06 00:58:33;;;;;;;18.60;16.60;;;;;;;;;;5085063;28;20029;-73
2022/09/06 01:00:59;;;;;;;18.48;16.58;;;;;;;;;;5072721;28;20024;-73
2022/09/06 01:03:25;;;;;;;17.98;16.08;;;;;;;;;;5073524;28;20024;-74
2022/09/06 01:06:09;;;;;;;17.55;15.75;;;;;;;;;;5073372;28;20059;-74
2022/09/06 01:08:35;;;;;;;17.77;16.13;;;;;;;;;;5065259;28;20485;-73
2022/09/06 01:11:04;;;;;;;17.80;15.98;;;;;;;;;;5072025;28;20031;-72
2022/09/06 01:13:45;;;;;;;23.98;16.95;;;;;;;;;;5071045;28;20547;-72
2022/09/06 01:16:10;;;;;;;18.33;15.82;;;;;;;;;;5072933;28;20024;-73
2022/09/06 01:18:46;;;;;;;19.00;16.77;;;;;;;;;;5072319;28;20043;-72
2022/09/06 01:21:27;;;;;;;20.95;16.48;;;;;;;;;;5072466;28;20020;-71
2022/09/06 01:24:12;;;;;;;18.67;16.52;;;;;;;;;;5072503;28;20048;-74
2022/09/06 01:26:50;;;;;;;16.85;15.10;;;;;;;;;;5080930;28;20020;-73
2022/09/06 01:29:22;;;;;;;20.33;15.75;;;;;;;;;;5081759;28;20026;-74
2022/09/06 01:31:52;;;;;;;17.60;15.80;;;;;;;;;;5072817;28;20120;-74
2022/09/06 01:34:38;;;;;;;16.88;15.20;;;;;;;;;;5072174;28;20078;-74
2022/09/06 01:37:12;;;;;;;20.13;17.63;;;;;;;;;;5072010;28;20028;-72
2022/09/06 01:39:39;;;;;;;19.48;15.35;;;;;;;;;;5072536;28;20024;-73
2022/09/06 01:42:07;;;;;;;17.55;15.65;;;;;;;;;;5066544;28;20542;-73
2022/09/06 01:44:34;;;;;;;18.60;15.57;;;;;;;;;;5073716;28;20028;-74
2022/09/06 01:47:07;;;;;;;17.58;15.18;;;;;;;;;;5065152;28;20040;-72
2022/09/06 01:49:33;;;;;;;19.40;16.45;;;;;;;;;;5073756;28;20531;-73
2022/09/06 01:52:07;;;;;;;16.67;14.93;;;;;;;;;;5072387;28;20206;-73
2022/09/06 01:54:46;;;;;;;17.20;15.15;;;;;;;;;;5072061;28;20021;-74
2022/09/06 01:57:23;;;;;;;17.42;15.32;;;;;;;;;;5066293;28;20028;-74
2022/09/06 01:59:49;;;;;;;18.63;15.10;;;;;;;;;;5071948;28;20027;-74
2022/09/06 02:02:53;;;;;;;16.95;15.05;;;;;;;;;;5071755;28;20398;-74
2022/09/06 02:05:34;;;;;;;15.27;13.77;;;;;;;;;;5001133;28;20034;-74
2022/09/06 02:08:18;;;;;;;16.90;14.63;;;;;;;;;;5003609;28;20134;-73
2022/09/06 02:10:47;;;;;;;16.23;14.55;;;;;;;;;;5046896;28;20487;-74
2022/09/06 02:13:14;;;;;;;15.55;13.90;;;;;;;;;;5071769;28;20029;-72
2022/09/06 02:15:53;;;;;;;14.10;12.70;;;;;;;;;;5071712;28;20048;-74
2022/09/06 02:18:21;;;;;;;14.25;12.82;;;;;;;;;;5080052;28;20512;-73
2022/09/06 02:20:50;;;;;;;13.93;12.43;;;;;;;;;;5072494;28;20024;-73
2022/09/06 02:23:18;;;;;;;19.55;12.35;;;;;;;;;;5083888;28;20497;-74
2022/09/06 02:25:50;;;;;;;13.20;11.90;;;;;;;;;;5071206;28;20058;-74
2022/09/06 02:28:16;;;;;;;13.00;11.68;;;;;;;;;;5071141;28;20048;-72
2022/09/06 02:30:44;;;;;;;12.73;11.52;;;;;;;;;;5068724;28;20036;-73
2022/09/06 02:33:13;;;;;;;13.43;11.98;;;;;;;;;;5089879;28;20016;-73
2022/09/06 02:35:43;;;;;;;16.67;12.05;;;;;;;;;;5060397;28;20051;-73
2022/09/06 02:38:09;;;;;;;15.18;11.93;;;;;;;;;;5077096;28;20461;-72
2022/09/06 02:40:35;;;;;;;17.25;12.30;;;;;;;;;;5071708;28;20052;-74
2022/09/06 02:43:01;;;;;;;12.65;11.43;;;;;;;;;;5071065;28;20032;-73
2022/09/06 02:45:27;;;;;;;12.48;11.27;;;;;;;;;;5071010;28;20115;-72
2022/09/06 02:47:53;;;;;;;12.52;11.23;;;;;;;;;;5070654;28;20338;-74
2022/09/06 02:50:19;;;;;;;13.25;11.85;;;;;;;;;;5080580;28;20020;-73
2022/09/06 02:52:45;;;;;;;13.05;10.82;;;;;;;;;;5070803;28;20024;-72
2022/09/06 02:55:11;;;;;;;12.20;10.90;;;;;;;;;;5071472;28;20020;-72
2022/09/06 02:57:38;;;;;;;13.70;11.15;;;;;;;;;;5070009;28;20056;-72
2022/09/06 03:00:04;;;;;;;13.82;12.25;;;;;;;;;;5076906;28;20024;-74
2022/09/06 03:02:30;;;;;;;19.88;12.00;;;;;;;;;;5066456;28;20020;-73
2022/09/06 03:04:56;;;;;;;16.52;10.63;;;;;;;;;;5061249;28;20129;-73
2022/09/06 03:07:22;;;;;;;12.55;10.77;;;;;;;;;;5076163;28;20025;-72
2022/09/06 03:09:48;;;;;;;13.40;11.07;;;;;;;;;;5070874;28;20012;-71
2022/09/06 03:12:14;;;;;;;14.75;11.48;;;;;;;;;;5070890;28;20452;-72
2022/09/06 03:14:40;;;;;;;12.15;10.88;;;;;;;;;;5070968;28;20028;-72
2022/09/06 03:17:06;;;;;;;12.88;11.57;;;;;;;;;;5077495;28;20031;-70
2022/09/06 03:19:32;;;;;;;13.15;11.85;;;;;;;;;;5072793;28;20393;-71
2022/09/06 03:21:58;;;;;;;12.52;11.23;;;;;;;;;;5070947;28;20509;-74
2022/09/06 03:24:24;;;;;;;16.15;12.13;;;;;;;;;;5069700;28;20070;-73
2022/09/06 03:26:50;;;;;;;13.02;11.63;;;;;;;;;;5072949;28;20405;-73
2022/09/06 03:29:16;;;;;;;12.43;11.18;;;;;;;;;;5079857;28;20032;-73
2022/09/06 03:31:42;;;;;;;12.50;10.85;;;;;;;;;;5061350;28;20036;-73
2022/09/06 03:34:09;;;;;;;13.57;11.70;;;;;;;;;;5071270;28;20112;-74
2022/09/06 03:36:35;;;;;;;16.38;11.60;;;;;;;;;;5070759;28;20067;-73
2022/09/06 03:39:01;;;;;;;12.07;10.88;;;;;;;;;;5069795;28;20507;-73
2022/09/06 03:41:27;;;;;;;13.05;11.27;;;;;;;;;;5070725;28;20029;-73
2022/09/06 03:43:53;;;;;;;12.75;11.02;;;;;;;;;;5089717;28;20028;-74
2022/09/06 03:46:19;;;;;;;12.32;11.13;;;;;;;;;;5097545;28;20038;-75
2022/09/06 03:48:46;;;;;;;13.70;11.60;;;;;;;;;;5106338;28;20046;-73
2022/09/06 03:51:11;;;;;;;12.48;11.13;;;;;;;;;;5089072;28;20020;-72
2022/09/06 03:53:37;;;;;;;13.85;12.27;;;;;;;;;;5077837;28;20111;-74
2022/09/06 03:56:03;;;;;;;12.95;11.52;;;;;;;;;;5077501;28;20021;-72
2022/09/06 03:58:30;;;;;;;12.95;11.63;;;;;;;;;;5063689;28;20101;-72
2022/09/06 04:01:00;;;;;;;12.80;11.40;;;;;;;;;;5074535;28;20024;-75
2022/09/06 04:03:26;;;;;;;15.63;12.40;;;;;;;;;;5074508;28;20029;-73
2022/09/06 04:05:52;;;;;;;13.18;11.73;;;;;;;;;;5074493;28;20020;-74
2022/09/06 04:08:18;;;;;;;12.98;11.68;;;;;;;;;;5063537;28;20024;-73
2022/09/06 04:10:44;;;;;;;12.57;11.27;;;;;;;;;;5075517;28;20051;-72
2022/09/06 04:13:10;;;;;;;12.80;11.50;;;;;;;;;;5073980;28;20052;-73
2022/09/06 04:15:36;;;;;;;11.80;10.60;;;;;;;;;;5074185;28;20078;-72
2022/09/06 04:18:02;;;;;;;11.23;10.07;;;;;;;;;;5074941;28;20394;-72
2022/09/06 04:20:28;;;;;;;12.02;10.82;;;;;;;;;;5082143;28;20486;-73
2022/09/06 04:22:57;;;;;;;12.32;10.93;;;;;;;;;;5074316;28;20021;-73
2022/09/06 04:25:23;;;;;;;12.07;10.88;;;;;;;;;;5074709;28;20012;-73
2022/09/06 04:27:49;;;;;;;13.23;10.63;;;;;;;;;;5073424;28;20016;-72
2022/09/06 04:30:15;;;;;;;16.10;10.93;;;;;;;;;;5077896;28;20036;-71
2022/09/06 04:32:41;;;;;;;11.80;10.27;;;;;;;;;;5073992;28;20021;-73
2022/09/06 04:35:07;;;;;;;14.52;10.55;;;;;;;;;;5064921;28;20062;-73
2022/09/06 04:37:33;;;;;;;10.73;9.63;;;;;;;;;;5077259;28;20032;-72
2022/09/06 04:39:59;;;;;;;12.45;9.77;;;;;;;;;;5063901;28;20024;-72
2022/09/06 04:42:25;;;;;;;10.82;9.55;;;;;;;;;;5078944;28;20482;-73
2022/09/06 04:44:51;;;;;;;11.68;9.45;;;;;;;;;;5073741;28;20021;-73
2022/09/06 04:47:18;;;;;;;10.85;9.82;;;;;;;;;;5072770;28;20512;-71
2022/09/06 04:49:44;;;;;;;11.48;8.75;;;;;;;;;;5073536;28;20374;-73
2022/09/06 04:52:10;;;;;;;9.63;8.52;;;;;;;;;;5073391;28;20040;-73
2022/09/06 04:54:37;;;;;;;12.70;9.95;;;;;;;;;;5073954;28;20059;-73
2022/09/06 04:57:03;;;;;;;10.98;8.55;;;;;;;;;;5080684;28;20059;-73
2022/09/06 04:59:29;;;;;;;9.57;7.75;;;;;;;;;;5078568;28;20024;-72
2022/09/06 05:01:55;;;;;;;9.90;7.93;;;;;;;;;;5073217;28;20038;-74
2022/09/06 05:04:21;;;;;;;8.93;7.22;;;;;;;;;;5072858;28;20025;-72
2022/09/06 05:06:47;;;;;;;9.18;7.25;;;;;;;;;;5064424;28;20020;-73
2022/09/06 05:09:13;;;;;;;10.93;7.38;;;;;;;;;;5076606;28;20483;-74
2022/09/06 05:11:39;;;;;;;10.35;7.53;;;;;;;;;;5063447;28;20070;-73
2022/09/06 05:14:05;;;;;;;11.15;7.13;;;;;;;;;;5077650;28;20473;-73
2022/09/06 05:16:31;;;;;;;8.02;7.20;;;;;;;;;;5075516;28;20024;-72
2022/09/06 05:18:57;;;;;;;8.00;6.90;;;;;;;;;;5078627;28;20029;-73
2022/09/06 05:21:26;;;;;;;12.85;7.07;;;;;;;;;;5072122;28;20027;-74
2022/09/06 05:23:52;;;;;;;11.70;7.57;;;;;;;;;;5072360;28;20390;-72
2022/09/06 05:26:18;;;;;;;8.60;7.05;;;;;;;;;;5073565;28;20434;-72
2022/09/06 05:28:44;;;;;;;13.95;8.32;;;;;;;;;;5073900;28;20489;-71
2022/09/06 05:31:11;;;;;;;10.55;7.65;;;;;;;;;;5074680;28;20039;-72
2022/09/06 05:33:38;;;;;;;7.72;6.90;;;;;;;;;;5072659;28;20103;-73
2022/09/06 05:36:04;;;;;;;10.68;7.03;;;;;;;;;;5072497;28;20028;-73
2022/09/06 05:38:31;;;;;;;9.52;6.00;;;;;;;;;;5071994;28;20024;-73
2022/09/06 05:40:57;;;;;;;9.43;6.35;;;;;;;;;;5072643;28;20033;-73
2022/09/06 05:43:23;;;;;;;7.35;5.95;;;;;;;;;;5063012;28;20115;-72
2022/09/06 05:45:49;;;;;;;8.95;6.50;;;;;;;;;;5077414;28;20119;-73
2022/09/06 05:48:15;;;;;;;6.38;5.47;;;;;;;;;;5071130;28;20032;-71
2022/09/06 05:50:41;;;;;;;8.38;5.68;;;;;;;;;;5072038;28;20017;-74
2022/09/06 05:53:07;;;;;;;6.25;5.57;;;;;;;;;;5071988;28;20051;-72
2022/09/06 05:55:33;;;;;;;11.20;6.05;;;;;;;;;;5071992;28;20029;-72
2022/09/06 05:57:59;;;;;;;7.70;6.50;;;;;;;;;;5070953;28;20024;-74
2022/09/06 06:00:24;;;;;;;8.32;5.63;;;;;;;;;;5071628;28;20040;-73
2022/09/06 06:02:51;;;;;;;6.50;5.80;;;;;;;;;;5073812;28;20024;-70
2022/09/06 06:05:17;;;;;;;8.27;5.95;;;;;;;;;;5073585;28;20024;-73
2022/09/06 06:07:43;;;;;;;8.45;6.35;;;;;;;;;;5074025;28;20039;-73
2022/09/06 06:10:09;;;;;;;8.18;5.82;;;;;;;;;;5071939;28;20021;-71
2022/09/06 06:12:35;;;;;;;8.57;6.40;;;;;;;;;;5067259;28;20025;-73
2022/09/06 06:15:04;;;;;;;9.63;7.03;;;;;;;;;;5062013;28;20023;-72
2022/09/06 06:17:30;;;;;;;8.05;5.82;;;;;;;;;;5071546;28;20016;-72
2022/09/06 06:19:57;;;;;;;9.13;6.57;;;;;;;;;;5071302;28;20029;-70
2022/09/06 06:22:25;;;;;;;8.90;6.88;;;;;;;;;;5071472;28;20170;-70
2022/09/06 06:24:51;;;;;;;7.10;6.40;;;;;;;;;;5071364;28;20021;-72
2022/09/06 06:27:17;;;;;;;7.07;6.38;;;;;;;;;;5070977;28;20025;-74
2022/09/06 06:29:43;;;;;;;8.90;6.53;;;;;;;;;;5083108;28;20035;-73
2022/09/06 06:32:09;;;;;;;9.73;7.32;;;;;;;;;;5083964;28;20024;-72
2022/09/06 06:34:35;;;;;;;10.15;6.63;;;;;;;;;;5079904;28;20123;-73
2022/09/06 06:37:01;;;;;;;11.95;7.07;;;;;;;;;;5074851;28;20037;-73
2022/09/06 06:39:28;;;;;;;10.02;6.97;;;;;;;;;;5079383;28;20044;-73
2022/09/06 06:41:54;;;;;;;7.88;6.10;;;;;;;;;;5079256;28;20016;-72
2022/09/06 06:44:20;;;;;;;8.07;6.38;;;;;;;;;;5086115;22;20135;-73
2022/09/06 06:46:46;;;;;;;8.23;6.57;;;;;;;;;;5062860;28;20056;-73
2022/09/06 06:49:12;;;;;;;18.15;7.70;;;;;;;;;;5051698;28;20032;-72
2022/09/06 06:51:38;;;;;;;11.45;6.15;;;;;;;;;;5035539;28;20025;-73
2022/09/06 06:54:05;;;;;;;14.40;6.80;;;;;;;;;;5053328;28;20029;-73
2022/09/06 06:56:30;;;;;;;9.32;6.20;;;;;;;;;;5072783;28;20059;-73
2022/09/06 06:58:58;;;;;;;6.25;5.57;;;;;;;;;;5053622;28;20433;-74
2022/09/06 07:01:25;;;;;;;10.18;5.80;;;;;;;;;;5071055;28;20029;-74
2022/09/06 07:03:51;;;;;;;9.38;5.65;;;;;;;;;;5071307;28;20024;-72
2022/09/06 07:06:18;;;;;;;6.50;5.40;;;;;;;;;;5070493;28;20040;-72
2022/09/06 07:08:44;;;;;;;9.18;5.95;;;;;;;;;;5070410;28;20043;-73
2022/09/06 07:11:11;;;;;;;6.40;5.10;;;;;;;;;;5052783;28;20032;-74
2022/09/06 07:13:39;;;;;;;6.40;5.78;;;;;;;;;;5070866;28;20500;-75
2022/09/06 07:16:09;;;;;;;9.05;5.80;;;;;;;;;;5069347;28;20029;-77
2022/09/06 07:18:40;;;;;;;7.05;4.78;;;;;;;;;;5064695;28;20458;-76
2022/09/06 07:21:06;;;;;;;7.75;5.50;;;;;;;;;;5051882;28;20456;-74
2022/09/06 07:23:32;;;;;;;6.30;5.55;;;;;;;;;;5070876;28;20051;-74
2022/09/06 07:25:58;;;;;;;10.38;6.03;;;;;;;;;;5069639;28;20020;-74
2022/09/06 07:28:24;;;;;;;11.60;5.70;;;;;;;;;;5069494;28;20020;-73
2022/09/06 07:30:53;;;;;;;7.90;5.60;;;;;;;;;;5069493;28;20035;-72
2022/09/06 07:33:19;;;;;;;13.93;5.57;;;;;;;;;;5069707;28;20024;-73
2022/09/06 07:35:54;;;;;;;14.65;6.07;;;;;;;;;;5070558;28;20444;-74
2022/09/06 07:38:20;;;;;;;9.90;6.22;;;;;;;;;;5068920;28;20486;-73
2022/09/06 07:40:52;;;;;;;8.25;5.88;;;;;;;;;;5070487;28;20028;-73
2022/09/06 07:43:18;;;;;;;12.43;5.32;;;;;;;;;;5070817;28;20104;-73
2022/09/06 07:45:44;;;;;;;8.18;5.03;;;;;;;;;;5070253;28;20135;-74
2022/09/06 07:48:10;;;;;;;7.25;5.30;;;;;;;;;;5070048;28;20362;-73
2022/09/06 07:50:35;;;;;;;7.93;6.07;;;;;;;;;;5068532;28;20029;-72
2022/09/06 07:53:08;;;;;;;12.57;6.57;;;;;;;;;;5070368;28;20101;-72
2022/09/06 07:55:34;;;;;;;8.38;4.90;;;;;;;;;;5070138;28;20028;-74
2022/09/06 07:58:00;;;;;;;14.55;5.63;;;;;;;;;;5069284;28;20025;-73
2022/09/06 08:00:26;;;;;;;7.30;5.20;;;;;;;;;;5069965;28;20478;-72
2022/09/06 08:02:52;;;;;;;8.63;5.60;;;;;;;;;;5068081;28;20112;-72
2022/09/06 08:05:18;;;;;;;8.35;4.82;;;;;;;;;;5068448;28;20396;-73
2022/09/06 08:07:44;;;;;;;12.30;5.50;;;;;;;;;;5067803;28;20019;-72
2022/09/06 08:10:10;;;;;;;12.82;5.55;;;;;;;;;;5068757;28;20024;-72
2022/09/06 08:12:36;;;;;;;12.35;5.30;;;;;;;;;;5068466;28;20017;-73
2022/09/06 08:15:02;;;;;;;7.05;5.68;;;;;;;;;;5068907;28;20106;-73
2022/09/06 08:17:34;;;;;;;8.82;5.60;;;;;;;;;;5068644;28;20029;-72
2022/09/06 08:19:59;;;;;;;8.32;5.43;;;;;;;;;;5062070;28;20059;-72
2022/09/06 08:22:25;;;;;;;8.45;5.38;;;;;;;;;;5064503;28;20024;-73
2022/09/06 08:24:51;;;;;;;7.05;5.05;;;;;;;;;;5070158;28;20023;-73
2022/09/06 08:27:17;;;;;;;8.75;5.10;;;;;;;;;;5059493;28;20421;-73
2022/09/06 08:29:43;;;;;;;7.95;5.28;;;;;;;;;;5069477;28;20017;-73
2022/09/06 08:32:09;;;;;;;6.53;5.15;;;;;;;;;;5071012;28;20514;-73
2022/09/06 08:34:35;;;;;;;12.73;5.25;;;;;;;;;;5073522;28;20020;-73
2022/09/06 08:37:01;;;;;;;11.10;6.15;;;;;;;;;;5073293;28;20095;-73
2022/09/06 08:39:27;;;;;;;9.93;5.88;;;;;;;;;;5072969;28;20056;-73
2022/09/06 08:42:01;;;;;;;8.98;5.28;;;;;;;;;;5073649;28;20012;-72
2022/09/06 08:44:36;;;;;;;8.23;5.05;;;;;;;;;;5073157;28;20504;-73
2022/09/06 08:47:03;;;;;;;8.77;5.60;;;;;;;;;;5073291;28;20044;-72
2022/09/06 08:49:30;;;;;;;8.95;5.30;;;;;;;;;;5073181;28;20470;-73
2022/09/06 08:52:12;;;;;;;7.55;5.50;;;;;;;;;;5073608;28;20074;-72
2022/09/06 08:54:38;;;;;;;;;;;;;;;;;;5072805;28;20027;-71
2022/09/06 08:57:12;;;;;;;6.85;5.03;;;;;;;;;;5071952;28;20374;-73
2022/09/06 08:59:39;;;;;;;7.22;4.80;;;;;;;;;;5055100;28;20109;-72
2022/09/06 09:02:13;;;;;;;9.20;5.53;;;;;;;;;;5071342;28;20031;-72
2022/09/06 09:04:41;;;;;;;9.68;4.80;;;;;;;;;;5072166;28;20509;-72
2022/09/06 09:07:16;;;;;;;6.82;5.22;;;;;;;;;;5072605;28;20052;-72
2022/09/06 09:09:42;;;;;;;11.43;5.18;;;;;;;;;;5072844;28;20585;-73
2022/09/06 09:12:09;;;;;;;13.57;5.28;;;;;;;;;;5055154;28;20044;-73
2022/09/06 09:14:36;;;;;;;4.90;4.50;;;;;;;;;;5070125;28;20028;-73
2022/09/06 09:17:15;;;;;;;7.22;5.15;;;;;;;;;;5073907;28;20055;-73
2022/09/06 09:19:41;;;;;;;6.30;4.85;;;;;;;;;;5056087;28;20016;-73
2022/09/06 09:22:07;;;;;;;6.90;5.13;;;;;;;;;;5069295;28;20055;-73
2022/09/06 09:24:34;;;;;;;6.60;5.75;;;;;;;;;;5071983;28;20284;-73
2022/09/06 09:27:03;;;;;;;5.45;4.90;;;;;;;;;;5073876;28;20024;-72
2022/09/06 09:29:29;;;;;;;8.95;4.57;;;;;;;;;;5054163;28;20020;-72
2022/09/06 09:31:56;;;;;;;7.65;5.22;;;;;;;;;;5072008;28;20031;-72
2022/09/06 09:34:36;;;;;;;8.95;5.63;;;;;;;;;;5071950;28;20078;-72
2022/09/06 09:37:12;;;;;;;8.45;5.35;;;;;;;;;;5066982;28;20024;-71
2022/09/06 09:39:38;;;;;;;8.98;4.82;;;;;;;;;;5058906;28;20028;-73
2022/09/06 09:42:05;;;;;;;8.13;4.82;;;;;;;;;;5072331;28;20428;-73
2022/09/06 09:44:31;;;;;;;6.90;4.97;;;;;;;;;;5071651;28;20024;-72
2022/09/06 09:46:57;;;;;;;9.40;5.00;;;;;;;;;;5070726;28;20016;-73
2022/09/06 09:49:24;;;;;;;8.45;5.18;;;;;;;;;;5071353;28;20222;-74
2022/09/06 09:52:07;;;;;;;6.80;5.28;;;;;;;;;;5072195;28;20013;-73
2022/09/06 09:54:36;;;;;;;13.35;5.68;;;;;;;;;;5072087;28;20023;-73
2022/09/06 09:57:06;;;;;;;7.88;5.13;;;;;;;;;;5071736;28;20028;-73
2022/09/06 09:59:37;;;;;;;12.60;5.68;;;;;;;;;;5071298;28;20021;-73
2022/09/06 10:02:17;;;;;;;7.70;4.90;;;;;;;;;;5072032;28;20024;-73
2022/09/06 10:04:45;;;;;;;8.40;5.63;;;;;;;;;;5071985;28;20032;-73
2022/09/06 10:07:13;;;;;;;8.48;5.00;;;;;;;;;;5070744;28;20086;-72
2022/09/06 10:09:40;;;;;;;12.52;5.75;;;;;;;;;;5067018;28;20059;-74
2022/09/06 10:12:06;;;;;;;5.93;4.82;;;;;;;;;;5071622;28;20067;-73
2022/09/06 10:14:39;;;;;;;8.38;5.30;;;;;;;;;;5071961;28;20059;-73
2022/09/06 10:17:05;;;;;;;9.85;5.60;;;;;;;;;;5070665;28;20386;-73
2022/09/06 10:19:39;;;;;;;8.98;5.13;;;;;;;;;;5071408;28;20038;-72
2022/09/06 10:22:08;;;;;;;9.88;5.10;;;;;;;;;;5071595;28;20028;-74
2022/09/06 10:24:40;;;;;;;7.47;5.18;;;;;;;;;;5063170;28;20031;-74
2022/09/06 10:27:07;;;;;;;13.32;6.30;;;;;;;;;;5056008;28;20034;-72
2022/09/06 10:29:54;;;;;;;6.65;5.22;;;;;;;;;;5061610;28;20020;-72
2022/09/06 10:32:23;;;;;;;10.82;5.38;;;;;;;;;;5046733;28;20039;-74
2022/09/06 10:34:57;;;;;;;6.50;5.05;;;;;;;;;;5068522;28;20035;-73
2022/09/06 10:37:35;;;;;;;7.57;4.63;;;;;;;;;;5070191;28;20120;-73
2022/09/06 10:40:01;;;;;;;8.20;4.90;;;;;;;;;;5065306;28;20036;-73
2022/09/06 10:42:45;;;;;;;5.85;4.45;;;;;;;;;;5070242;28;20860;-73
2022/09/06 10:45:41;;;;;;;8.60;4.95;;;;;;;;;;5067816;28;20032;-73
2022/09/06 10:48:13;;;;;;;8.13;4.93;;;;;;;;;;5048128;28;20064;-75
2022/09/06 10:50:45;;;;;;;6.65;5.38;;;;;;;;;;5071161;28;20029;-73
2022/09/06 10:53:17;;;;;;;8.82;4.55;;;;;;;;;;5071427;28;20035;-74
2022/09/06 10:55:45;;;;;;;7.03;5.07;;;;;;;;;;5070634;28;20043;-73
2022/09/06 10:58:11;;;;;;;6.68;4.85;;;;;;;;;;5069648;28;20654;-73
2022/09/06 11:00:42;;;;;;;5.05;4.43;;;;;;;;;;5069362;28;20087;-74
2022/09/06 11:03:16;;;;;;;8.95;4.80;;;;;;;;;;5055990;28;20093;-73
2022/09/06 11:05:48;;;;;;;7.88;4.63;;;;;;;;;;5067919;28;20020;-72
2022/09/06 11:08:20;;;;;;;8.65;4.72;;;;;;;;;;5056036;28;20016;-72
2022/09/06 11:10:48;;;;;;;6.72;4.57;;;;;;;;;;5068128;28;20115;-72
2022/09/06 11:13:18;;;;;;;6.25;4.43;;;;;;;;;;5069035;28;20031;-74
2022/09/06 11:16:03;;;;;;;7.53;4.93;;;;;;;;;;5070479;28;20035;-73
2022/09/06 11:18:31;;;;;;;8.75;4.72;;;;;;;;;;5070233;28;20024;-73
2022/09/06 11:21:02;;;;;;;6.15;5.10;;;;;;;;;;5070447;28;20541;-72
2022/09/06 11:23:49;;;;;;;8.02;4.35;;;;;;;;;;5070999;28;20551;-73
2022/09/06 11:26:36;;;;;;;5.15;4.65;;;;;;;;;;5067364;28;20375;-72
2022/09/06 11:29:10;;;;;;;7.32;4.32;;;;;;;;;;5058686;28;20398;-73
2022/09/06 11:31:54;;;;;;;6.38;5.03;;;;;;;;;;5070294;28;20095;-73
2022/09/06 11:34:29;;;;;;;5.15;4.32;;;;;;;;;;5070324;28;20791;-72
2022/09/06 11:36:56;;;;;;;6.38;4.43;;;;;;;;;;5069986;28;20059;-74
2022/09/06 11:39:33;;;;;;;5.88;4.85;;;;;;;;;;5061333;28;20020;-74
2022/09/06 11:41:59;;;;;;;6.82;4.68;;;;;;;;;;5070420;28;20114;-72
2022/09/06 11:44:44;;;;;;;5.38;4.85;;;;;;;;;;5070220;28;20482;-73
2022/09/06 11:47:30;;;;;;;9.30;4.60;;;;;;;;;;5069879;28;20036;-72
2022/09/06 11:49:56;;;;;;;7.13;5.15;;;;;;;;;;5070302;28;20029;-73
2022/09/06 11:52:40;;;;;;;5.90;4.45;;;;;;;;;;5070327;28;20033;-72
2022/09/06 11:55:09;;;;;;;5.65;4.50;;;;;;;;;;5070612;28;20104;-73
2022/09/06 11:57:35;;;;;;;9.35;4.78;;;;;;;;;;5069273;28;20029;-73
2022/09/06 12:00:02;;;;;;;7.47;4.97;;;;;;;;;;5070703;28;20093;-72
2022/09/06 12:02:29;;;;;;;6.22;4.80;;;;;;;;;;5070162;28;20075;-73
2022/09/06 12:05:02;;;;;;;8.68;5.05;;;;;;;;;;5070335;28;20389;-72
2022/09/06 12:07:29;;;;;;;7.40;4.70;;;;;;;;;;5072611;28;20097;-73
2022/09/06 12:09:55;;;;;;;6.07;4.43;;;;;;;;;;5074475;28;20044;-73
2022/09/06 12:12:56;;;;;;;7.82;4.15;;;;;;;;;;5056068;28;20078;-73
2022/09/06 12:15:22;;;;;;;;;;;;;;;;;;4992898;28;20113;-73
2022/09/06 12:17:48;;;;;;;7.75;4.80;;;;;;;;;;5056461;28;20002;-73
2022/09/06 12:20:35;;;;;;;9.80;4.72;;;;;;;;;;5074067;28;20024;-73
2022/09/06 12:23:01;;;;;;;5.20;4.35;;;;;;;;;;5059599;28;20051;-73
2022/09/06 12:25:33;;;;;;;10.07;4.47;;;;;;;;;;5073958;28;20062;-73
2022/09/06 12:28:06;;;;;;;8.48;4.32;;;;;;;;;;5055385;28;20028;-73
2022/09/06 12:30:43;;;;;;;5.85;4.15;;;;;;;;;;5074103;28;20083;-72
2022/09/06 12:33:27;;;;;;;5.05;3.92;;;;;;;;;;5064205;28;20112;-73
2022/09/06 12:36:11;;;;;;;7.18;3.67;;;;;;;;;;5073041;28;20035;-74
2022/09/06 12:38:37;;;;;;;3.78;3.13;;;;;;;;;;5058703;28;20058;-72
2022/09/06 12:41:04;;;;;;;7.00;4.28;;;;;;;;;;5069982;28;20415;-73
2022/09/06 12:43:34;;;;;;;4.18;3.50;;;;;;;;;;5071507;28;20016;-73
2022/09/06 12:46:02;;;;;;;5.88;3.33;;;;;;;;;;5101190;22;20090;-71
2022/09/06 12:48:29;;;;;;;7.68;3.80;;;;;;;;;;5080165;28;20060;-72
2022/09/06 12:51:30;;;;;;;6.57;3.92;;;;;;;;;;5071566;28;20486;-73
2022/09/06 12:53:56;;;;;;;;;;;;;;;;;;5010745;28;20065;-73
2022/09/06 12:56:23;;;;;;;4.47;3.38;;;;;;;;;;5077747;28;19904;-73
2022/09/06 12:58:50;;;;;;;8.05;3.75;;;;;;;;;;5092570;28;20095;-72
2022/09/06 13:01:21;;;;;;;6.22;3.85;;;;;;;;;;5085047;28;20197;-72
2022/09/06 13:04:06;;;;;;;5.82;3.67;;;;;;;;;;5091775;28;20020;-73
2022/09/06 13:06:38;;;;;;;10.80;4.22;;;;;;;;;;5080473;28;20064;-72
2022/09/06 13:09:05;;;;;;;4.20;3.80;;;;;;;;;;5092277;28;20024;-73
2022/09/06 13:11:35;;;;;;;6.45;4.22;;;;;;;;;;5093163;28;20059;-72
2022/09/06 13:14:02;;;;;;;5.30;3.60;;;;;;;;;;5093077;28;20030;-72
2022/09/06 13:16:35;;;;;;;4.30;3.85;;;;;;;;;;5092921;28;20724;-71
2022/09/06 13:19:14;;;;;;;5.65;3.95;;;;;;;;;;5091393;28;20028;-72
2022/09/06 13:21:41;;;;;;;6.35;3.55;;;;;;;;;;5093193;28;20103;-73
2022/09/06 13:24:21;;;;;;;5.30;4.50;;;;;;;;;;5093149;28;20081;-72
2022/09/06 13:26:47;;;;;;;4.47;3.85;;;;;;;;;;5093207;28;20020;-73
2022/09/06 13:29:16;;;;;;;8.00;4.05;;;;;;;;;;5091098;28;20500;-75
2022/09/06 13:31:46;;;;;;;103.30;8.32;;;;;;;;;;5087706;28;20031;-72
2022/09/06 13:34:19;;;;;;;3.22;2.80;;;;;;;;;;5091875;28;20060;-72
2022/09/06 13:36:48;;;;;;;6.43;2.53;;;;;;;;;;5090822;28;20028;-73
2022/09/06 13:39:28;;;;;;;7.93;2.42;;;;;;;;;;5081634;28;20028;-71
2022/09/06 13:41:58;;;;;;;6.88;2.50;;;;;;;;;;5090526;28;20016;-73
2022/09/06 13:44:28;;;;;;;9.20;3.90;;;;;;;;;;5090466;28;20012;-72
2022/09/06 13:47:02;;;;;;;9.70;4.15;;;;;;;;;;5090503;28;20089;-74
2022/09/06 13:49:28;;;;;;;11.75;4.90;;;;;;;;;;5091072;28;20024;-73
2022/09/06 13:51:57;;;;;;;13.90;6.47;;;;;;;;;;5092472;28;20085;-74
2022/09/06 13:54:23;;;;;;;14.73;7.30;;;;;;;;;;5090686;28;20031;-72
2022/09/06 13:56:50;;;;;;;14.45;8.48;;;;;;;;;;5092354;28;20069;-74
2022/09/06 13:59:17;;;;;;;13.80;10.77;;;;;;;;;;5091243;28;20039;-74
2022/09/06 14:01:44;;;;;;;20.23;15.73;;;;;;;;;;5091964;28;20024;-74
2022/09/06 14:04:14;;;;;;;16.85;13.55;;;;;;;;;;5089164;28;20096;-75
2022/09/06 14:06:41;;;;;;;16.35;12.57;;;;;;;;;;5090406;28;20465;-76
2022/09/06 14:09:07;;;;;;;16.20;13.30;;;;;;;;;;5089196;28;20031;-75
2022/09/06 14:11:33;;;;;;;18.25;15.57;;;;;;;;;;5089998;28;20677;-75
2022/09/06 14:13:59;;;;;;;17.10;15.40;;;;;;;;;;5089731;28;20024;-74
2022/09/06 14:16:25;;;;;;;16.65;15.07;;;;;;;;;;5076173;28;20028;-75
2022/09/06 14:18:52;;;;;;;20.20;18.02;;;;;;;;;;5089010;28;20363;-74
2022/09/06 14:21:18;;;;;;;23.25;20.95;;;;;;;;;;5089642;28;20378;-74
2022/09/06 14:23:49;;;;;;;20.75;17.23;;;;;;;;;;5091721;28;20031;-75
2022/09/06 14:26:17;;;;;;;13.13;11.80;;;;;;;;;;5091279;28;20015;-74
2022/09/06 14:28:43;;;;;;;16.15;14.07;;;;;;;;;;5091328;28;20026;-74
2022/09/06 14:31:20;;;;;;;17.13;15.02;;;;;;;;;;5090596;28;20510;-75
2022/09/06 14:33:46;;;;;;;16.35;14.75;;;;;;;;;;5092012;28;20043;-74
2022/09/06 14:36:13;;;;;;;19.10;16.25;;;;;;;;;;5089741;28;20024;-74
2022/09/06 14:38:40;;;;;;;17.73;16.02;;;;;;;;;;5085342;28;20098;-74
2022/09/06 14:41:07;;;;;;;12.55;10.60;;;;;;;;;;5088474;28;20028;-73
2022/09/06 14:43:33;;;;;;;12.48;11.30;;;;;;;;;;5091601;28;20397;-74
2022/09/06 14:46:06;;;;;;;15.95;14.43;;;;;;;;;;5091121;28;20111;-73